createdAt,value
2023-05-25T00:00:22.091Z,101076.47
2023-05-25T00:04:27.058Z,101074.41
2023-05-25T00:08:29.561Z,101076.03
2023-05-25T00:12:31.549Z,101078.19
2023-05-25T00:16:37.351Z,101075.41
2023-05-25T00:20:39.252Z,101083.72
2023-05-25T00:24:40.907Z,101083.66
2023-05-25T00:28:42.614Z,101081.59
2023-05-25T00:32:44.259Z,101082.53
2023-05-25T00:36:48.859Z,101084.38
2023-05-25T00:40:55.306Z,101085.47
2023-05-25T00:44:57.616Z,101088.97
2023-05-25T00:48:59.208Z,101092.38
2023-05-25T00:53:01.939Z,101090.44
2023-05-25T00:57:07.735Z,101088.34
2023-05-25T01:01:11.857Z,101088.72
2023-05-25T01:05:17.450Z,101088.41
2023-05-25T01:09:22.449Z,101086.19
2023-05-25T01:13:24.307Z,101081.28
2023-05-25T01:17:26.926Z,101087.91
2023-05-25T01:21:45.857Z,101077.22
2023-05-25T01:25:57.348Z,101094.94
2023-05-25T01:30:00.004Z,101093.56
2023-05-25T01:34:01.998Z,101100.16
2023-05-25T01:38:03.790Z,101101.78
2023-05-25T01:42:05.825Z,101101.91
2023-05-25T01:46:38.671Z,101102.84
2023-05-25T01:51:17.197Z,101104.97
2023-05-25T01:55:20.146Z,101109.81
2023-05-25T01:59:22.607Z,101106.78
2023-05-25T02:03:28.093Z,101106.34
2023-05-25T02:07:29.666Z,101105.03
2023-05-25T02:11:31.252Z,101103.97
2023-05-25T02:15:33.727Z,101103.22
2023-05-25T02:19:35.929Z,101103.16
2023-05-25T02:23:37.644Z,101107.16
2023-05-25T02:27:41.461Z,101110.22
2023-05-25T02:31:43.497Z,101097.50
2023-05-25T02:35:45.381Z,101097.00
2023-05-25T02:39:47.091Z,101093.56
2023-05-25T02:43:48.779Z,101100.19
2023-05-25T02:47:50.463Z,101097.50
2023-05-25T02:51:52.666Z,101096.84
2023-05-25T02:55:54.477Z,101090.03
2023-05-25T02:59:58.768Z,101096.75
2023-05-25T03:04:00.692Z,101098.78
2023-05-25T03:08:06.284Z,101099.19
2023-05-25T03:12:08.037Z,101088.56
2023-05-25T03:16:09.744Z,101103.88
2023-05-25T03:20:11.926Z,101102.13
2023-05-25T03:24:16.904Z,101104.59
2023-05-25T03:28:19.488Z,101116.63
2023-05-25T03:32:21.718Z,101113.22
2023-05-25T03:36:27.412Z,101118.38
2023-05-25T03:40:29.056Z,101120.94
2023-05-25T03:44:30.961Z,101119.72
2023-05-25T03:48:32.557Z,101131.53
2023-05-25T03:52:34.225Z,101133.03
2023-05-25T03:56:37.428Z,101149.97
2023-05-25T04:00:42.109Z,101152.44
2023-05-25T04:04:43.976Z,101157.31
2023-05-25T04:08:45.918Z,101154.59
2023-05-25T04:12:47.723Z,101153.03
2023-05-25T04:16:50.895Z,101156.56
2023-05-25T04:20:52.709Z,101166.47
2023-05-25T04:24:56.938Z,101163.59
2023-05-25T04:28:58.712Z,101162.94
2023-05-25T04:33:11.541Z,101160.97
2023-05-25T04:37:42.462Z,101163.31
2023-05-25T04:41:45.651Z,101159.88
2023-05-25T04:45:48.006Z,101159.06
2023-05-25T04:49:49.774Z,101162.84
2023-05-25T04:53:51.510Z,101158.75
2023-05-25T04:57:54.868Z,101168.31
2023-05-25T05:01:57.948Z,101160.88
2023-05-25T05:05:59.664Z,101174.78
2023-05-25T05:10:04.923Z,101170.25
2023-05-25T05:14:08.027Z,101179.13
2023-05-25T05:18:10.272Z,101180.72
2023-05-25T05:22:15.475Z,101186.31
2023-05-25T05:26:17.849Z,101184.78
2023-05-25T05:30:19.744Z,101190.34
2023-05-25T05:34:21.943Z,101185.31
2023-05-25T05:38:25.028Z,101186.19
2023-05-25T05:42:27.749Z,101185.56
2023-05-25T05:46:29.473Z,101188.56
2023-05-25T05:50:31.416Z,101192.25
2023-05-25T05:54:33.664Z,101197.75
2023-05-25T05:58:40.821Z,101213.41
2023-05-25T06:02:43.275Z,101208.69
2023-05-25T06:06:48.952Z,101209.00
2023-05-25T06:10:51.254Z,101207.69
2023-05-25T06:14:53.039Z,101210.50
2023-05-25T06:18:54.880Z,101209.31
2023-05-25T06:22:56.545Z,101210.69
2023-05-25T06:26:58.164Z,101214.91
2023-05-25T06:31:00.577Z,101219.78
2023-05-25T06:35:02.664Z,101226.84
2023-05-25T06:39:04.469Z,101231.34
2023-05-25T06:43:06.195Z,101228.03
2023-05-25T06:47:36.973Z,101232.44
2023-05-25T06:51:38.721Z,101231.19
2023-05-25T06:55:40.404Z,101237.31
2023-05-25T06:59:41.968Z,101230.94
2023-05-25T07:03:43.819Z,101238.13
2023-05-25T07:07:45.515Z,101227.19
2023-05-25T07:11:47.227Z,101236.94
2023-05-25T07:15:49.215Z,101218.94
2023-05-25T07:19:51.010Z,101214.81
2023-05-25T07:23:52.693Z,101218.56
2023-05-25T07:27:55.343Z,101219.88
2023-05-25T07:31:56.982Z,101223.09
2023-05-25T07:35:58.691Z,101206.31
2023-05-25T07:40:00.308Z,101209.97
2023-05-25T07:44:01.989Z,101220.03
2023-05-25T07:48:06.974Z,101220.63
2023-05-25T07:52:09.244Z,101219.22
2023-05-25T07:56:10.987Z,101217.03
2023-05-25T08:00:13.342Z,101222.59
2023-05-25T08:04:14.960Z,101221.44
2023-05-25T08:08:16.772Z,101201.41
2023-05-25T08:16:23.144Z,101195.94
2023-05-25T08:20:26.067Z,101201.47
2023-05-25T08:24:27.817Z,101195.84
2023-05-25T08:28:29.483Z,101200.38
2023-05-25T08:32:31.137Z,101203.25
2023-05-25T08:36:33.974Z,101197.63
2023-05-25T08:40:36.156Z,101209.34
2023-05-25T08:44:38.700Z,101212.28
2023-05-25T08:48:42.883Z,101200.38
2023-05-25T08:52:46.934Z,101210.06
2023-05-25T08:56:54.439Z,101209.53
2023-05-25T09:01:02.542Z,101204.56
2023-05-25T09:05:05.034Z,101199.44
2023-05-25T09:09:07.587Z,101210.09
2023-05-25T09:13:21.421Z,101203.53
2023-05-25T09:17:24.053Z,101203.72
2023-05-25T09:21:26.673Z,101201.34
2023-05-25T09:25:29.221Z,101199.69
2023-05-25T09:29:32.249Z,101199.13
2023-05-25T09:33:36.830Z,101186.28
2023-05-25T09:37:39.321Z,101189.03
2023-05-25T09:41:41.576Z,101192.81
2023-05-25T09:45:43.271Z,101199.97
2023-05-25T09:49:47.539Z,101203.53
2023-05-25T09:53:49.332Z,101200.19
2023-05-25T09:57:54.799Z,101194.31
2023-05-25T10:01:56.917Z,101198.78
2023-05-25T10:05:58.927Z,101180.81
2023-05-25T10:10:06.316Z,101196.41
2023-05-25T10:14:08.860Z,101188.88
2023-05-25T10:18:13.208Z,101185.50
2023-05-25T10:22:26.390Z,101186.44
2023-05-25T10:26:31.841Z,101190.00
2023-05-25T10:30:33.785Z,101188.34
2023-05-25T10:34:35.964Z,101187.63
2023-05-25T10:38:39.720Z,101180.84
2023-05-25T10:42:41.904Z,101172.25
2023-05-25T10:46:44.003Z,101181.06
2023-05-25T10:50:51.309Z,101168.06
2023-05-25T10:54:57.023Z,101177.69
2023-05-25T10:58:58.761Z,101164.75
2023-05-25T11:03:00.498Z,101177.88
2023-05-25T11:07:02.120Z,101167.50
2023-05-25T11:11:03.716Z,101177.06
2023-05-25T11:15:11.442Z,101176.19
2023-05-25T11:19:15.813Z,101172.78
2023-05-25T11:23:24.085Z,101158.03
2023-05-25T11:27:29.029Z,101162.47
2023-05-25T11:31:41.503Z,101157.38
2023-05-25T11:35:45.536Z,101148.75
2023-05-25T11:39:48.909Z,101151.38
2023-05-25T11:43:51.564Z,101144.47
2023-05-25T11:47:53.291Z,101146.28
2023-05-25T11:51:56.942Z,101142.81
2023-05-25T11:56:07.565Z,101128.97
2023-05-25T12:00:11.395Z,101127.25
2023-05-25T12:04:14.822Z,101133.41
2023-05-25T12:08:17.013Z,101130.78
2023-05-25T12:12:19.473Z,101122.09
2023-05-25T12:16:21.592Z,101119.47
2023-05-25T12:20:23.499Z,101113.34
2023-05-25T12:24:25.313Z,101109.88
2023-05-25T12:28:26.968Z,101105.50
2023-05-25T12:32:28.694Z,101107.28
2023-05-25T12:36:52.264Z,101102.94
2023-05-25T12:41:09.558Z,101111.63
2023-05-25T12:45:11.420Z,101102.91
2023-05-25T12:49:33.457Z,101090.63
2023-05-25T12:53:49.801Z,101094.94
2023-05-25T12:58:00.261Z,101093.09
2023-05-25T13:02:03.383Z,101089.56
2023-05-25T13:06:06.201Z,101089.47
2023-05-25T13:10:08.535Z,101091.06
2023-05-25T13:14:10.472Z,101087.38
2023-05-25T13:18:12.147Z,101082.91
2023-05-25T13:22:13.736Z,101086.13
2023-05-25T13:26:15.476Z,101081.75
2023-05-25T13:30:17.547Z,101085.31
2023-05-25T13:34:19.287Z,101078.88
2023-05-25T13:38:20.912Z,101080.25
2023-05-25T13:42:22.652Z,101074.88
2023-05-25T13:46:34.070Z,101063.41
2023-05-25T13:50:36.500Z,101068.66
2023-05-25T13:54:38.043Z,101067.75
2023-05-25T13:58:39.699Z,101069.16
2023-05-25T14:02:41.502Z,101061.81
2023-05-25T14:06:43.613Z,101045.84
2023-05-25T14:10:45.628Z,101055.38
2023-05-25T14:14:47.395Z,101057.22
2023-05-25T14:18:49.115Z,101053.38
2023-05-25T14:22:51.366Z,101042.34
2023-05-25T14:26:53.051Z,101033.22
2023-05-25T14:30:54.705Z,101038.41
2023-05-25T14:34:56.387Z,101032.00
2023-05-25T14:38:58.000Z,101031.25
2023-05-25T14:42:59.624Z,101015.41
2023-05-25T14:47:01.374Z,101022.13
2023-05-25T14:51:04.123Z,101027.44
2023-05-25T14:55:06.174Z,101025.09
2023-05-25T14:59:07.896Z,101025.84
2023-05-25T15:03:09.773Z,101023.53
2023-05-25T15:07:12.901Z,101020.66
2023-05-25T15:11:14.717Z,101025.84
2023-05-25T15:15:17.118Z,101021.84
2023-05-25T15:19:18.910Z,101033.41
2023-05-25T15:23:20.467Z,101032.84
2023-05-25T15:27:22.236Z,101029.84
2023-05-25T15:31:24.290Z,101018.38
2023-05-25T15:35:31.017Z,101016.41
2023-05-25T15:39:32.663Z,101014.06
2023-05-25T15:43:34.353Z,101024.56
2023-05-25T15:47:35.994Z,101015.25
2023-05-25T15:51:42.539Z,101016.00
2023-05-25T15:55:44.477Z,101018.78
2023-05-25T15:59:47.984Z,101010.63
2023-05-25T16:03:49.604Z,101006.16
2023-05-25T16:07:51.243Z,101007.50
2023-05-25T16:11:52.818Z,101002.03
2023-05-25T16:15:54.616Z,101008.59
2023-05-25T16:19:56.364Z,101014.44
2023-05-25T16:24:01.174Z,101010.41
2023-05-25T16:28:02.971Z,101009.69
2023-05-25T16:32:05.062Z,101007.94
2023-05-25T16:36:07.038Z,101005.59
2023-05-25T16:40:09.104Z,101007.56
2023-05-25T16:44:11.539Z,101000.59
2023-05-25T16:48:13.340Z,101003.53
2023-05-25T16:52:15.261Z,100999.44
2023-05-25T16:56:18.113Z,100997.88
2023-05-25T17:00:20.221Z,101002.44
2023-05-25T17:04:22.013Z,101006.03
2023-05-25T17:08:23.759Z,101000.94
2023-05-25T17:12:25.657Z,100997.75
2023-05-25T17:16:27.462Z,101004.53
2023-05-25T17:20:30.226Z,101001.72
2023-05-25T17:24:31.867Z,101000.38
2023-05-25T17:28:33.655Z,101013.06
2023-05-25T17:32:35.859Z,101012.63
2023-05-25T17:36:37.532Z,101012.06
2023-05-25T17:40:39.129Z,101021.28
2023-05-25T17:44:42.310Z,101015.72
2023-05-25T17:48:44.024Z,101029.06
2023-05-25T17:52:46.676Z,101031.88
2023-05-25T17:56:48.337Z,101034.66
2023-05-25T18:00:50.132Z,101033.03
2023-05-25T18:04:51.805Z,101036.56
2023-05-25T18:08:53.486Z,101043.59
2023-05-25T18:12:55.194Z,101040.19
2023-05-25T18:16:56.842Z,101049.81
2023-05-25T18:20:58.524Z,101048.97
2023-05-25T18:25:00.361Z,101049.84
2023-05-25T18:29:02.229Z,101062.03
2023-05-25T18:33:04.027Z,101061.19
2023-05-25T18:37:05.821Z,101063.81
2023-05-25T18:41:07.465Z,101064.66
2023-05-25T18:45:09.360Z,101067.25
2023-05-25T18:49:11.362Z,101070.75
2023-05-25T18:53:13.003Z,101065.50
2023-05-25T18:57:14.773Z,101075.94
2023-05-25T19:01:16.436Z,101085.41
2023-05-25T19:05:19.846Z,101090.59
2023-05-25T19:09:21.375Z,101089.69
2023-05-25T19:13:23.129Z,101094.88
2023-05-25T19:17:24.770Z,101093.09
2023-05-25T19:21:26.920Z,101100.81
2023-05-25T19:25:28.480Z,101117.22
2023-05-25T19:29:30.258Z,101122.38
2023-05-25T19:33:31.897Z,101117.09
2023-05-25T19:37:33.487Z,101128.34
2023-05-25T19:41:37.634Z,101128.28
2023-05-25T19:45:39.338Z,101134.28
2023-05-25T19:49:41.129Z,101136.88
2023-05-25T19:53:42.695Z,101132.44
2023-05-25T19:57:44.297Z,101135.88
2023-05-25T20:01:46.137Z,101141.00
2023-05-25T20:05:47.953Z,101151.38
2023-05-25T20:09:49.804Z,101159.06
2023-05-25T20:13:51.490Z,101161.56
2023-05-25T20:17:53.165Z,101166.63
2023-05-25T20:21:54.916Z,101165.72
2023-05-25T20:25:56.684Z,101168.31
2023-05-25T20:29:58.370Z,101162.97
2023-05-25T20:33:59.914Z,101175.81
2023-05-25T20:38:01.511Z,101177.47
2023-05-25T20:42:03.185Z,101170.53
2023-05-25T20:46:07.203Z,101173.06
2023-05-25T20:50:08.896Z,101164.28
2023-05-25T20:54:10.934Z,101178.84
2023-05-25T20:58:12.856Z,101188.28
2023-05-25T21:02:14.653Z,101188.22
2023-05-25T21:06:16.430Z,101193.34
2023-05-25T21:10:18.180Z,101198.38
2023-05-25T21:14:19.821Z,101207.81
2023-05-25T21:18:21.456Z,101196.41
2023-05-25T21:22:23.092Z,101205.00
2023-05-25T21:26:24.764Z,101206.50
2023-05-25T21:30:26.607Z,101208.94
2023-05-25T21:34:28.282Z,101203.75
2023-05-25T21:38:29.893Z,101213.84
2023-05-25T21:42:31.493Z,101217.22
2023-05-25T21:46:33.115Z,101218.84
2023-05-25T21:50:36.584Z,101230.84
2023-05-25T21:54:38.205Z,101226.38
2023-05-25T21:58:39.850Z,101232.19
2023-05-25T22:02:41.652Z,101239.75
2023-05-25T22:06:43.458Z,101238.72
2023-05-25T22:10:45.184Z,101246.44
2023-05-25T22:14:46.870Z,101245.25
2023-05-25T22:18:48.499Z,101247.75
2023-05-25T22:22:50.137Z,101251.94
2023-05-25T22:26:52.153Z,101257.94
2023-05-25T22:30:53.867Z,101261.06
2023-05-25T22:34:56.005Z,101262.69
2023-05-25T22:38:57.785Z,101264.34
2023-05-25T22:42:59.381Z,101278.84
2023-05-25T22:47:01.021Z,101269.16
2023-05-25T22:51:02.615Z,101269.91
2023-05-25T22:55:04.566Z,101270.47
2023-05-25T22:59:06.627Z,101271.06
2023-05-25T23:03:08.325Z,101286.38
2023-05-25T23:07:09.993Z,101280.88
2023-05-25T23:11:11.574Z,101287.50
2023-05-25T23:15:13.224Z,101284.75
2023-05-25T23:19:16.696Z,101290.53
2023-05-25T23:23:18.500Z,101298.13
2023-05-25T23:27:20.099Z,101303.13
2023-05-25T23:31:21.720Z,101308.91
2023-05-25T23:35:23.467Z,101308.66
2023-05-25T23:39:25.175Z,101307.63
2023-05-25T23:43:26.840Z,101312.63
2023-05-25T23:47:28.484Z,101313.50
2023-05-25T23:51:31.832Z,101320.94
2023-05-25T23:55:33.467Z,101309.72
2023-05-25T23:59:35.064Z,101308.97
